sensor_id;sensor_type;location;lat;lon;timestamp;temperature;humidity
78490;DHT22;67776;52.012;4.736;2023-02-15T00:01:41;3.79;86.37
78490;DHT22;67776;52.012;4.736;2023-02-15T00:04:07;3.60;84.39
78490;DHT22;67776;52.012;4.736;2023-02-15T00:06:32;3.53;84.52
78490;DHT22;67776;52.012;4.736;2023-02-15T00:08:58;3.46;85.49
78490;DHT22;67776;52.012;4.736;2023-02-15T00:11:24;3.43;85.67
78490;DHT22;67776;52.012;4.736;2023-02-15T00:14:15;3.46;85.61
78490;DHT22;67776;52.012;4.736;2023-02-15T00:16:42;3.44;85.72
78490;DHT22;67776;52.012;4.736;2023-02-15T00:19:08;3.44;85.90
78490;DHT22;67776;52.012;4.736;2023-02-15T00:21:35;3.40;85.97
78490;DHT22;67776;52.012;4.736;2023-02-15T00:24:02;3.43;85.38
78490;DHT22;67776;52.012;4.736;2023-02-15T00:26:28;3.36;85.45
78490;DHT22;67776;52.012;4.736;2023-02-15T00:28:54;3.43;85.29
78490;DHT22;67776;52.012;4.736;2023-02-15T00:31:20;3.42;85.57
78490;DHT22;67776;52.012;4.736;2023-02-15T00:33:45;3.42;85.36
78490;DHT22;67776;52.012;4.736;2023-02-15T00:36:11;3.39;85.35
78490;DHT22;67776;52.012;4.736;2023-02-15T00:38:37;3.32;85.33
78490;DHT22;67776;52.012;4.736;2023-02-15T00:41:04;3.26;85.45
78490;DHT22;67776;52.012;4.736;2023-02-15T00:43:31;3.26;85.30
78490;DHT22;67776;52.012;4.736;2023-02-15T00:45:57;3.24;85.46
78490;DHT22;67776;52.012;4.736;2023-02-15T00:48:22;3.24;85.83
78490;DHT22;67776;52.012;4.736;2023-02-15T00:50:53;3.25;85.83
78490;DHT22;67776;52.012;4.736;2023-02-15T00:53:18;3.24;85.77
78490;DHT22;67776;52.012;4.736;2023-02-15T00:55:44;3.12;85.67
78490;DHT22;67776;52.012;4.736;2023-02-15T00:58:10;3.05;85.95
78490;DHT22;67776;52.012;4.736;2023-02-15T01:00:36;3.07;86.45
78490;DHT22;67776;52.012;4.736;2023-02-15T01:03:02;3.09;86.28
78490;DHT22;67776;52.012;4.736;2023-02-15T01:05:28;3.12;86.69
78490;DHT22;67776;52.012;4.736;2023-02-15T01:07:55;3.12;86.40
78490;DHT22;67776;52.012;4.736;2023-02-15T01:10:20;3.07;86.08
78490;DHT22;67776;52.012;4.736;2023-02-15T01:12:45;2.97;86.27
78490;DHT22;67776;52.012;4.736;2023-02-15T01:15:11;2.90;86.68
78490;DHT22;67776;52.012;4.736;2023-02-15T01:17:36;2.88;86.69
78490;DHT22;67776;52.012;4.736;2023-02-15T01:20:01;2.88;86.77
78490;DHT22;67776;52.012;4.736;2023-02-15T01:22:27;2.83;86.96
78490;DHT22;67776;52.012;4.736;2023-02-15T01:24:52;2.73;86.99
78490;DHT22;67776;52.012;4.736;2023-02-15T01:27:18;2.72;86.86
78490;DHT22;67776;52.012;4.736;2023-02-15T01:29:43;2.60;87.03
78490;DHT22;67776;52.012;4.736;2023-02-15T01:32:09;2.61;86.97
78490;DHT22;67776;52.012;4.736;2023-02-15T01:34:34;2.67;88.25
78490;DHT22;67776;52.012;4.736;2023-02-15T01:37:00;2.77;87.78
78490;DHT22;67776;52.012;4.736;2023-02-15T01:39:25;2.79;87.49
78490;DHT22;67776;52.012;4.736;2023-02-15T01:41:50;2.60;87.20
78490;DHT22;67776;52.012;4.736;2023-02-15T01:47:09;2.61;88.14
78490;DHT22;67776;52.012;4.736;2023-02-15T01:49:36;2.56;87.39
78490;DHT22;67776;52.012;4.736;2023-02-15T01:52:02;2.60;87.52
78490;DHT22;67776;52.012;4.736;2023-02-15T01:54:31;2.63;87.68
78490;DHT22;67776;52.012;4.736;2023-02-15T01:57:01;2.63;88.96
78490;DHT22;67776;52.012;4.736;2023-02-15T01:59:28;2.61;88.74
78490;DHT22;67776;52.012;4.736;2023-02-15T02:01:55;2.66;88.35
78490;DHT22;67776;52.012;4.736;2023-02-15T02:04:32;2.67;87.95
78490;DHT22;67776;52.012;4.736;2023-02-15T02:06:59;2.72;89.23
78490;DHT22;67776;52.012;4.736;2023-02-15T02:09:25;2.76;89.85
78490;DHT22;67776;52.012;4.736;2023-02-15T02:11:51;2.90;90.50
78490;DHT22;67776;52.012;4.736;2023-02-15T02:14:17;2.93;88.91
78490;DHT22;67776;52.012;4.736;2023-02-15T02:16:47;2.79;85.86
78490;DHT22;67776;52.012;4.736;2023-02-15T02:21:55;2.60;87.60
78490;DHT22;67776;52.012;4.736;2023-02-15T02:27:29;2.54;88.69
78490;DHT22;67776;52.012;4.736;2023-02-15T02:33:38;2.36;87.93
78490;DHT22;67776;52.012;4.736;2023-02-15T02:36:29;2.45;87.97
78490;DHT22;67776;52.012;4.736;2023-02-15T02:41:32;2.38;88.56
78490;DHT22;67776;52.012;4.736;2023-02-15T02:46:59;2.41;88.68
78490;DHT22;67776;52.012;4.736;2023-02-15T02:49:34;2.39;88.15
78490;DHT22;67776;52.012;4.736;2023-02-15T02:52:03;2.41;88.31
78490;DHT22;67776;52.012;4.736;2023-02-15T02:54:30;2.42;89.24
78490;DHT22;67776;52.012;4.736;2023-02-15T02:56:59;2.43;88.33
78490;DHT22;67776;52.012;4.736;2023-02-15T02:59:30;2.36;87.99
78490;DHT22;67776;52.012;4.736;2023-02-15T03:02:08;2.36;87.96
78490;DHT22;67776;52.012;4.736;2023-02-15T03:04:41;2.36;88.48
78490;DHT22;67776;52.012;4.736;2023-02-15T03:07:10;2.32;89.00
78490;DHT22;67776;52.012;4.736;2023-02-15T03:09:39;2.31;89.20
78490;DHT22;67776;52.012;4.736;2023-02-15T03:12:07;2.31;88.64
78490;DHT22;67776;52.012;4.736;2023-02-15T03:14:34;2.31;87.93
78490;DHT22;67776;52.012;4.736;2023-02-15T03:17:02;2.29;87.99
78490;DHT22;67776;52.012;4.736;2023-02-15T03:19:31;2.33;87.98
78490;DHT22;67776;52.012;4.736;2023-02-15T03:22:12;2.36;87.49
78490;DHT22;67776;52.012;4.736;2023-02-15T03:24:42;2.32;87.64
78490;DHT22;67776;52.012;4.736;2023-02-15T03:27:12;2.20;87.55
78490;DHT22;67776;52.012;4.736;2023-02-15T03:29:42;2.15;87.93
78490;DHT22;67776;52.012;4.736;2023-02-15T03:32:10;2.20;87.92
78490;DHT22;67776;52.012;4.736;2023-02-15T03:34:37;2.08;87.30
78490;DHT22;67776;52.012;4.736;2023-02-15T03:37:13;2.08;87.97
78490;DHT22;67776;52.012;4.736;2023-02-15T03:39:53;1.98;88.44
78490;DHT22;67776;52.012;4.736;2023-02-15T03:42:26;1.97;88.22
78490;DHT22;67776;52.012;4.736;2023-02-15T03:47:27;2.08;88.00
78490;DHT22;67776;52.012;4.736;2023-02-15T03:53:02;1.97;87.98
78490;DHT22;67776;52.012;4.736;2023-02-15T03:55:28;1.93;88.23
78490;DHT22;67776;52.012;4.736;2023-02-15T03:57:53;1.93;88.09
78490;DHT22;67776;52.012;4.736;2023-02-15T04:00:43;1.93;87.77
78490;DHT22;67776;52.012;4.736;2023-02-15T04:03:33;1.97;87.60
78490;DHT22;67776;52.012;4.736;2023-02-15T04:06:03;1.95;87.55
78490;DHT22;67776;52.012;4.736;2023-02-15T04:08:29;1.84;87.85
78490;DHT22;67776;52.012;4.736;2023-02-15T04:11:13;1.90;87.77
78490;DHT22;67776;52.012;4.736;2023-02-15T04:13:39;1.97;89.45
78490;DHT22;67776;52.012;4.736;2023-02-15T04:16:04;2.07;91.54
78490;DHT22;67776;52.012;4.736;2023-02-15T04:18:35;2.05;88.45
78490;DHT22;67776;52.012;4.736;2023-02-15T04:21:21;2.15;91.46
78490;DHT22;67776;52.012;4.736;2023-02-15T04:24:05;2.35;92.21
78490;DHT22;67776;52.012;4.736;2023-02-15T04:26:50;2.49;93.09
78490;DHT22;67776;52.012;4.736;2023-02-15T04:29:19;2.57;92.48
78490;DHT22;67776;52.012;4.736;2023-02-15T04:31:45;2.67;92.51
78490;DHT22;67776;52.012;4.736;2023-02-15T04:34:10;2.73;92.26
78490;DHT22;67776;52.012;4.736;2023-02-15T04:36:37;2.76;91.63
78490;DHT22;67776;52.012;4.736;2023-02-15T04:39:02;2.81;92.07
78490;DHT22;67776;52.012;4.736;2023-02-15T04:41:28;2.83;91.90
78490;DHT22;67776;52.012;4.736;2023-02-15T04:43:53;2.84;92.07
78490;DHT22;67776;52.012;4.736;2023-02-15T04:46:18;2.87;91.68
78490;DHT22;67776;52.012;4.736;2023-02-15T04:48:44;2.88;91.96
78490;DHT22;67776;52.012;4.736;2023-02-15T04:51:09;2.94;92.21
78490;DHT22;67776;52.012;4.736;2023-02-15T04:53:35;2.94;92.93
78490;DHT22;67776;52.012;4.736;2023-02-15T04:56:00;2.96;92.83
78490;DHT22;67776;52.012;4.736;2023-02-15T04:58:26;2.96;92.96
78490;DHT22;67776;52.012;4.736;2023-02-15T05:00:54;2.94;92.81
78490;DHT22;67776;52.012;4.736;2023-02-15T05:03:20;2.87;93.00
78490;DHT22;67776;52.012;4.736;2023-02-15T05:05:45;2.81;92.89
78490;DHT22;67776;52.012;4.736;2023-02-15T05:08:10;2.70;93.00
78490;DHT22;67776;52.012;4.736;2023-02-15T05:10:36;2.77;93.37
78490;DHT22;67776;52.012;4.736;2023-02-15T05:13:01;2.56;92.44
78490;DHT22;67776;52.012;4.736;2023-02-15T05:15:26;2.59;93.24
78490;DHT22;67776;52.012;4.736;2023-02-15T05:17:52;2.60;93.36
78490;DHT22;67776;52.012;4.736;2023-02-15T05:20:17;2.67;93.32
78490;DHT22;67776;52.012;4.736;2023-02-15T05:22:43;2.56;93.51
78490;DHT22;67776;52.012;4.736;2023-02-15T05:25:09;2.60;93.70
78490;DHT22;67776;52.012;4.736;2023-02-15T05:27:53;2.61;93.85
78490;DHT22;67776;52.012;4.736;2023-02-15T05:30:37;2.57;93.56
78490;DHT22;67776;52.012;4.736;2023-02-15T05:33:05;2.59;93.62
78490;DHT22;67776;52.012;4.736;2023-02-15T05:35:31;2.56;93.19
78490;DHT22;67776;52.012;4.736;2023-02-15T05:37:56;2.56;92.76
78490;DHT22;67776;52.012;4.736;2023-02-15T05:40:22;2.54;93.11
78490;DHT22;67776;52.012;4.736;2023-02-15T05:42:47;2.52;93.44
78490;DHT22;67776;52.012;4.736;2023-02-15T05:45:12;2.50;93.02
78490;DHT22;67776;52.012;4.736;2023-02-15T05:47:38;2.50;92.91
78490;DHT22;67776;52.012;4.736;2023-02-15T05:50:04;2.43;92.91
78490;DHT22;67776;52.012;4.736;2023-02-15T05:52:29;2.45;92.19
78490;DHT22;67776;52.012;4.736;2023-02-15T05:54:54;2.36;91.51
78490;DHT22;67776;52.012;4.736;2023-02-15T05:57:20;2.32;91.47
78490;DHT22;67776;52.012;4.736;2023-02-15T05:59:45;2.25;92.65
78490;DHT22;67776;52.012;4.736;2023-02-15T06:02:10;2.29;92.57
78490;DHT22;67776;52.012;4.736;2023-02-15T06:04:37;2.31;92.61
78490;DHT22;67776;52.012;4.736;2023-02-15T06:07:02;2.31;92.76
78490;DHT22;67776;52.012;4.736;2023-02-15T06:09:27;2.32;92.91
78490;DHT22;67776;52.012;4.736;2023-02-15T06:11:53;2.33;93.41
78490;DHT22;67776;52.012;4.736;2023-02-15T06:14:18;2.29;93.43
78490;DHT22;67776;52.012;4.736;2023-02-15T06:16:43;2.26;93.69
78490;DHT22;67776;52.012;4.736;2023-02-15T06:19:09;2.26;93.70
78490;DHT22;67776;52.012;4.736;2023-02-15T06:21:34;2.28;93.67
78490;DHT22;67776;52.012;4.736;2023-02-15T06:23:59;2.32;93.64
78490;DHT22;67776;52.012;4.736;2023-02-15T06:26:25;2.31;93.59
78490;DHT22;67776;52.012;4.736;2023-02-15T06:28:53;2.28;93.66
78490;DHT22;67776;52.012;4.736;2023-02-15T06:31:18;2.22;93.67
78490;DHT22;67776;52.012;4.736;2023-02-15T06:33:43;2.17;93.39
78490;DHT22;67776;52.012;4.736;2023-02-15T06:36:09;2.17;93.32
78490;DHT22;67776;52.012;4.736;2023-02-15T06:38:34;2.21;93.10
78490;DHT22;67776;52.012;4.736;2023-02-15T06:40:59;2.15;93.37
78490;DHT22;67776;52.012;4.736;2023-02-15T06:43:24;2.10;93.23
78490;DHT22;67776;52.012;4.736;2023-02-15T06:45:50;2.14;92.85
78490;DHT22;67776;52.012;4.736;2023-02-15T06:48:15;2.07;92.71
78490;DHT22;67776;52.012;4.736;2023-02-15T06:50:40;2.07;92.94
78490;DHT22;67776;52.012;4.736;2023-02-15T06:53:06;2.08;93.17
78490;DHT22;67776;52.012;4.736;2023-02-15T06:55:31;2.10;93.15
78490;DHT22;67776;52.012;4.736;2023-02-15T06:57:56;2.03;93.32
78490;DHT22;67776;52.012;4.736;2023-02-15T07:00:22;1.98;93.44
78490;DHT22;67776;52.012;4.736;2023-02-15T07:02:53;1.98;93.17
78490;DHT22;67776;52.012;4.736;2023-02-15T07:05:20;2.03;92.93
78490;DHT22;67776;52.012;4.736;2023-02-15T07:07:45;1.98;92.76
78490;DHT22;67776;52.012;4.736;2023-02-15T07:10:11;2.01;93.05
78490;DHT22;67776;52.012;4.736;2023-02-15T07:12:36;1.95;93.33
78490;DHT22;67776;52.012;4.736;2023-02-15T07:15:09;1.95;93.27
78490;DHT22;67776;52.012;4.736;2023-02-15T07:17:37;2.00;93.13
78490;DHT22;67776;52.012;4.736;2023-02-15T07:20:12;2.01;92.91
78490;DHT22;67776;52.012;4.736;2023-02-15T07:22:37;2.00;93.18
78490;DHT22;67776;52.012;4.736;2023-02-15T07:25:04;1.98;93.22
78490;DHT22;67776;52.012;4.736;2023-02-15T07:27:30;1.95;93.36
78490;DHT22;67776;52.012;4.736;2023-02-15T07:29:56;1.95;93.47
78490;DHT22;67776;52.012;4.736;2023-02-15T07:32:21;1.93;93.14
78490;DHT22;67776;52.012;4.736;2023-02-15T07:34:46;1.94;93.21
78490;DHT22;67776;52.012;4.736;2023-02-15T07:37:12;1.98;93.07
78490;DHT22;67776;52.012;4.736;2023-02-15T07:39:37;2.01;93.04
78490;DHT22;67776;52.012;4.736;2023-02-15T07:42:03;2.01;92.76
78490;DHT22;67776;52.012;4.736;2023-02-15T07:44:28;2.03;92.86
78490;DHT22;67776;52.012;4.736;2023-02-15T07:46:53;2.04;92.67
78490;DHT22;67776;52.012;4.736;2023-02-15T07:49:19;2.08;92.67
78490;DHT22;67776;52.012;4.736;2023-02-15T07:51:44;2.05;92.76
78490;DHT22;67776;52.012;4.736;2023-02-15T07:54:09;2.08;92.63
78490;DHT22;67776;52.012;4.736;2023-02-15T07:56:35;2.10;92.51
78490;DHT22;67776;52.012;4.736;2023-02-15T07:59:03;2.10;92.51
78490;DHT22;67776;52.012;4.736;2023-02-15T08:01:32;2.12;92.50
78490;DHT22;67776;52.012;4.736;2023-02-15T08:03:58;2.11;92.39
78490;DHT22;67776;52.012;4.736;2023-02-15T08:06:26;2.14;92.37
78490;DHT22;67776;52.012;4.736;2023-02-15T08:08:51;2.17;92.37
78490;DHT22;67776;52.012;4.736;2023-02-15T08:11:20;2.17;92.33
78490;DHT22;67776;52.012;4.736;2023-02-15T08:13:56;2.25;92.32
78490;DHT22;67776;52.012;4.736;2023-02-15T08:21:36;2.41;91.98
78490;DHT22;67776;52.012;4.736;2023-02-15T08:24:02;2.46;91.88
78490;DHT22;67776;52.012;4.736;2023-02-15T08:26:29;2.52;91.66
78490;DHT22;67776;52.012;4.736;2023-02-15T08:28:54;2.60;91.46
78490;DHT22;67776;52.012;4.736;2023-02-15T08:31:21;2.61;91.29
78490;DHT22;67776;52.012;4.736;2023-02-15T08:33:48;2.64;91.25
78490;DHT22;67776;52.012;4.736;2023-02-15T08:36:16;2.73;91.18
78490;DHT22;67776;52.012;4.736;2023-02-15T08:38:42;2.75;90.94
78490;DHT22;67776;52.012;4.736;2023-02-15T08:41:27;2.81;90.80
78490;DHT22;67776;52.012;4.736;2023-02-15T08:43:55;2.83;90.95
78490;DHT22;67776;52.012;4.736;2023-02-15T08:46:22;2.87;90.69
78490;DHT22;67776;52.012;4.736;2023-02-15T08:48:48;2.97;90.15
78490;DHT22;67776;52.012;4.736;2023-02-15T08:51:17;3.04;90.56
78490;DHT22;67776;52.012;4.736;2023-02-15T08:53:44;3.04;90.08
78490;DHT22;67776;52.012;4.736;2023-02-15T08:56:10;3.14;89.84
78490;DHT22;67776;52.012;4.736;2023-02-15T08:58:36;3.22;89.57
78490;DHT22;67776;52.012;4.736;2023-02-15T09:01:17;3.28;88.96
78490;DHT22;67776;52.012;4.736;2023-02-15T09:03:44;3.36;89.64
78490;DHT22;67776;52.012;4.736;2023-02-15T09:06:10;3.42;88.80
78490;DHT22;67776;52.012;4.736;2023-02-15T09:08:36;3.48;89.30
78490;DHT22;67776;52.012;4.736;2023-02-15T09:11:10;3.52;89.73
78490;DHT22;67776;52.012;4.736;2023-02-15T09:13:37;3.59;89.47
78490;DHT22;67776;52.012;4.736;2023-02-15T09:16:07;3.70;89.58
78490;DHT22;67776;52.012;4.736;2023-02-15T09:18:36;3.71;88.69
78490;DHT22;67776;52.012;4.736;2023-02-15T09:21:22;3.79;88.64
78490;DHT22;67776;52.012;4.736;2023-02-15T09:23:49;3.90;88.13
78490;DHT22;67776;52.012;4.736;2023-02-15T09:26:17;3.97;87.28
78490;DHT22;67776;52.012;4.736;2023-02-15T09:28:44;4.02;87.37
78490;DHT22;67776;52.012;4.736;2023-02-15T09:31:12;4.14;87.94
78490;DHT22;67776;52.012;4.736;2023-02-15T09:33:39;4.26;87.63
78490;DHT22;67776;52.012;4.736;2023-02-15T09:36:12;4.35;87.08
78490;DHT22;67776;52.012;4.736;2023-02-15T09:38:38;4.45;87.21
78490;DHT22;67776;52.012;4.736;2023-02-15T10:05:53;7.20;77.68
78490;DHT22;67776;52.012;4.736;2023-02-15T10:08:32;7.30;76.73
78490;DHT22;67776;52.012;4.736;2023-02-15T10:14:15;7.83;76.65
78490;DHT22;67776;52.012;4.736;2023-02-15T10:25:46;8.11;74.15
78490;DHT22;67776;52.012;4.736;2023-02-15T10:28:20;8.39;74.41
78490;DHT22;67776;52.012;4.736;2023-02-15T10:31:02;8.25;75.35
78490;DHT22;67776;52.012;4.736;2023-02-15T10:33:40;8.38;74.92
78490;DHT22;67776;52.012;4.736;2023-02-15T10:39:14;8.33;75.21
78490;DHT22;67776;52.012;4.736;2023-02-15T10:44:44;8.50;74.57
78490;DHT22;67776;52.012;4.736;2023-02-15T10:50:26;8.54;74.76
78490;DHT22;67776;52.012;4.736;2023-02-15T10:55:50;8.97;73.42
78490;DHT22;67776;52.012;4.736;2023-02-15T11:03:36;9.12;72.02
78490;DHT22;67776;52.012;4.736;2023-02-15T11:06:11;9.32;71.06
78490;DHT22;67776;52.012;4.736;2023-02-15T11:08:55;9.69;71.35
78490;DHT22;67776;52.012;4.736;2023-02-15T11:11:26;9.66;70.32
78490;DHT22;67776;52.012;4.736;2023-02-15T11:13:56;9.94;69.15
78490;DHT22;67776;52.012;4.736;2023-02-15T11:16:26;10.11;69.98
78490;DHT22;67776;52.012;4.736;2023-02-15T11:18:59;10.11;68.65
78490;DHT22;67776;52.012;4.736;2023-02-15T11:21:30;9.91;68.64
78490;DHT22;67776;52.012;4.736;2023-02-15T11:23:59;9.97;69.83
78490;DHT22;67776;52.012;4.736;2023-02-15T11:26:37;9.97;69.80
78490;DHT22;67776;52.012;4.736;2023-02-15T11:29:20;10.16;68.98
78490;DHT22;67776;52.012;4.736;2023-02-15T11:31:54;10.40;68.92
78490;DHT22;67776;52.012;4.736;2023-02-15T11:34:28;10.70;66.84
78490;DHT22;67776;52.012;4.736;2023-02-15T11:36:55;10.49;67.64
78490;DHT22;67776;52.012;4.736;2023-02-15T11:39:24;10.76;67.93
78490;DHT22;67776;52.012;4.736;2023-02-15T11:41:55;10.93;66.42
78490;DHT22;67776;52.012;4.736;2023-02-15T11:44:32;10.91;66.89
78490;DHT22;67776;52.012;4.736;2023-02-15T11:47:01;11.03;65.86
78490;DHT22;67776;52.012;4.736;2023-02-15T11:49:29;10.85;66.32
78490;DHT22;67776;52.012;4.736;2023-02-15T11:51:56;10.91;66.18
78490;DHT22;67776;52.012;4.736;2023-02-15T11:54:27;11.00;66.52
78490;DHT22;67776;52.012;4.736;2023-02-15T11:56:55;11.05;66.47
78490;DHT22;67776;52.012;4.736;2023-02-15T11:59:29;11.18;66.35
78490;DHT22;67776;52.012;4.736;2023-02-15T12:01:56;11.32;64.40
78490;DHT22;67776;52.012;4.736;2023-02-15T12:04:36;11.66;64.50
78490;DHT22;67776;52.012;4.736;2023-02-15T12:07:30;11.95;61.94
78490;DHT22;67776;52.012;4.736;2023-02-15T12:12:47;12.18;61.05
78490;DHT22;67776;52.012;4.736;2023-02-15T12:15:13;12.28;60.42
78490;DHT22;67776;52.012;4.736;2023-02-15T12:17:48;12.67;59.77
78490;DHT22;67776;52.012;4.736;2023-02-15T12:22:48;12.95;58.81
78490;DHT22;67776;52.012;4.736;2023-02-15T12:25:34;12.93;58.86
78490;DHT22;67776;52.012;4.736;2023-02-15T12:28:01;13.04;57.81
78490;DHT22;67776;52.012;4.736;2023-02-15T12:30:32;13.31;57.29
78490;DHT22;67776;52.012;4.736;2023-02-15T12:33:38;13.59;57.07
78490;DHT22;67776;52.012;4.736;2023-02-15T12:36:14;12.90;58.90
78490;DHT22;67776;52.012;4.736;2023-02-15T12:38:40;12.83;61.77
78490;DHT22;67776;52.012;4.736;2023-02-15T12:41:22;12.63;61.16
78490;DHT22;67776;52.012;4.736;2023-02-15T12:44:04;12.36;61.52
78490;DHT22;67776;52.012;4.736;2023-02-15T12:46:29;12.29;60.76
78490;DHT22;67776;52.012;4.736;2023-02-15T12:49:25;11.98;61.88
78490;DHT22;67776;52.012;4.736;2023-02-15T12:51:58;11.91;60.98
78490;DHT22;67776;52.012;4.736;2023-02-15T12:54:31;11.69;62.44
78490;DHT22;67776;52.012;4.736;2023-02-15T12:56:58;11.55;63.51
78490;DHT22;67776;52.012;4.736;2023-02-15T12:59:24;11.62;62.14
78490;DHT22;67776;52.012;4.736;2023-02-15T13:01:51;11.83;62.58
78490;DHT22;67776;52.012;4.736;2023-02-15T13:04:24;11.86;63.41
78490;DHT22;67776;52.012;4.736;2023-02-15T13:06:52;12.11;61.79
78490;DHT22;67776;52.012;4.736;2023-02-15T13:11:57;11.80;64.55
78490;DHT22;67776;52.012;4.736;2023-02-15T13:14:33;12.02;63.24
78490;DHT22;67776;52.012;4.736;2023-02-15T13:17:01;11.99;62.46
78490;DHT22;67776;52.012;4.736;2023-02-15T13:19:35;12.05;62.12
78490;DHT22;67776;52.012;4.736;2023-02-15T13:22:05;11.90;62.55
78490;DHT22;67776;52.012;4.736;2023-02-15T13:24:44;11.76;62.70
78490;DHT22;67776;52.012;4.736;2023-02-15T13:27:15;11.56;61.61
78490;DHT22;67776;52.012;4.736;2023-02-15T13:29:44;11.59;63.68
78490;DHT22;67776;52.012;4.736;2023-02-15T13:32:28;11.65;63.18
78490;DHT22;67776;52.012;4.736;2023-02-15T13:34:58;11.74;63.73
78490;DHT22;67776;52.012;4.736;2023-02-15T13:37:42;11.84;63.31
78490;DHT22;67776;52.012;4.736;2023-02-15T13:51:14;11.97;63.87
78490;DHT22;67776;52.012;4.736;2023-02-15T13:53:46;11.94;61.84
78490;DHT22;67776;52.012;4.736;2023-02-15T14:01:56;11.95;61.41
78490;DHT22;67776;52.012;4.736;2023-02-15T14:07:41;11.69;62.63
78490;DHT22;67776;52.012;4.736;2023-02-15T14:19:03;11.97;63.22
78490;DHT22;67776;52.012;4.736;2023-02-15T14:22:00;12.17;63.17
78490;DHT22;67776;52.012;4.736;2023-02-15T14:24:49;12.40;60.49
78490;DHT22;67776;52.012;4.736;2023-02-15T14:27:26;12.21;61.83
78490;DHT22;67776;52.012;4.736;2023-02-15T14:30:10;12.10;62.72
78490;DHT22;67776;52.012;4.736;2023-02-15T14:32:43;11.84;62.42
78490;DHT22;67776;52.012;4.736;2023-02-15T14:35:15;11.71;63.69
78490;DHT22;67776;52.012;4.736;2023-02-15T14:43:51;11.44;65.42
78490;DHT22;67776;52.012;4.736;2023-02-15T14:46:30;11.40;65.77
78490;DHT22;67776;52.012;4.736;2023-02-15T14:56:46;11.14;66.18
78490;DHT22;67776;52.012;4.736;2023-02-15T15:01:37;11.00;67.36
78490;DHT22;67776;52.012;4.736;2023-02-15T15:04:10;11.16;67.20
78490;DHT22;67776;52.012;4.736;2023-02-15T15:06:38;11.16;67.47
78490;DHT22;67776;52.012;4.736;2023-02-15T15:11:47;11.03;67.75
78490;DHT22;67776;52.012;4.736;2023-02-15T15:14:40;11.00;68.29
78490;DHT22;67776;52.012;4.736;2023-02-15T15:17:09;10.93;69.42
78490;DHT22;67776;52.012;4.736;2023-02-15T15:22:20;10.77;68.47
78490;DHT22;67776;52.012;4.736;2023-02-15T15:24:47;10.74;68.74
78490;DHT22;67776;52.012;4.736;2023-02-15T15:27:48;10.80;68.50
78490;DHT22;67776;52.012;4.736;2023-02-15T15:41:41;10.29;71.08
78490;DHT22;67776;52.012;4.736;2023-02-15T15:50:29;10.23;72.08
78490;DHT22;67776;52.012;4.736;2023-02-15T15:52:58;10.15;72.00
78490;DHT22;67776;52.012;4.736;2023-02-15T15:55:26;10.04;72.24
78490;DHT22;67776;52.012;4.736;2023-02-15T15:57:57;9.93;72.85
78490;DHT22;67776;52.012;4.736;2023-02-15T16:00:36;9.93;72.47
78490;DHT22;67776;52.012;4.736;2023-02-15T16:03:04;9.88;72.31
78490;DHT22;67776;52.012;4.736;2023-02-15T16:05:37;9.77;73.17
78490;DHT22;67776;52.012;4.736;2023-02-15T16:08:03;9.80;72.53
78490;DHT22;67776;52.012;4.736;2023-02-15T16:10:29;9.71;72.97
78490;DHT22;67776;52.012;4.736;2023-02-15T16:12:58;9.77;73.08
78490;DHT22;67776;52.012;4.736;2023-02-15T16:15:49;9.74;73.02
78490;DHT22;67776;52.012;4.736;2023-02-15T16:18:20;9.73;72.87
78490;DHT22;67776;52.012;4.736;2023-02-15T16:20:52;9.69;73.11
78490;DHT22;67776;52.012;4.736;2023-02-15T16:29:01;9.39;74.18
78490;DHT22;67776;52.012;4.736;2023-02-15T16:31:27;9.33;74.04
78490;DHT22;67776;52.012;4.736;2023-02-15T16:33:53;9.23;74.47
78490;DHT22;67776;52.012;4.736;2023-02-15T16:41:22;9.15;75.08
78490;DHT22;67776;52.012;4.736;2023-02-15T16:43:49;9.12;75.42
78490;DHT22;67776;52.012;4.736;2023-02-15T16:48:52;8.92;75.40
78490;DHT22;67776;52.012;4.736;2023-02-15T16:51:24;8.92;75.36
78490;DHT22;67776;52.012;4.736;2023-02-15T16:53:51;8.84;75.41
78490;DHT22;67776;52.012;4.736;2023-02-15T16:56:22;8.61;76.40
78490;DHT22;67776;52.012;4.736;2023-02-15T16:58:49;8.47;76.81
78490;DHT22;67776;52.012;4.736;2023-02-15T17:01:16;8.46;77.01
78490;DHT22;67776;52.012;4.736;2023-02-15T17:03:48;8.36;77.08
78490;DHT22;67776;52.012;4.736;2023-02-15T17:06:32;8.43;76.89
78490;DHT22;67776;52.012;4.736;2023-02-15T17:09:06;8.40;77.15
78490;DHT22;67776;52.012;4.736;2023-02-15T17:11:43;8.40;77.10
78490;DHT22;67776;52.012;4.736;2023-02-15T17:16:42;8.36;76.93
78490;DHT22;67776;52.012;4.736;2023-02-15T17:19:33;8.35;76.95
78490;DHT22;67776;52.012;4.736;2023-02-15T17:22:04;8.25;77.14
78490;DHT22;67776;52.012;4.736;2023-02-15T17:24:38;8.24;77.14
78490;DHT22;67776;52.012;4.736;2023-02-15T17:27:10;8.11;77.71
78490;DHT22;67776;52.012;4.736;2023-02-15T17:29:39;8.08;77.67
78490;DHT22;67776;52.012;4.736;2023-02-15T17:32:11;8.01;77.89
78490;DHT22;67776;52.012;4.736;2023-02-15T17:34:57;7.98;78.17
78490;DHT22;67776;52.012;4.736;2023-02-15T17:40:14;7.81;78.47
78490;DHT22;67776;52.012;4.736;2023-02-15T17:42:42;7.87;78.40
78490;DHT22;67776;52.012;4.736;2023-02-15T17:45:08;7.84;78.47
78490;DHT22;67776;52.012;4.736;2023-02-15T17:47:33;7.80;78.51
78490;DHT22;67776;52.012;4.736;2023-02-15T17:50:01;7.78;78.53
78490;DHT22;67776;52.012;4.736;2023-02-15T17:52:29;7.57;79.07
78490;DHT22;67776;52.012;4.736;2023-02-15T17:54:54;7.50;79.16
78490;DHT22;67776;52.012;4.736;2023-02-15T17:57:38;7.38;79.34
78490;DHT22;67776;52.012;4.736;2023-02-15T18:00:05;7.28;79.99
78490;DHT22;67776;52.012;4.736;2023-02-15T18:02:49;7.15;80.19
78490;DHT22;67776;52.012;4.736;2023-02-15T18:05:34;7.15;80.11
78490;DHT22;67776;52.012;4.736;2023-02-15T18:08:27;7.09;80.25
78490;DHT22;67776;52.012;4.736;2023-02-15T18:11:11;7.07;80.17
78490;DHT22;67776;52.012;4.736;2023-02-15T18:13:55;7.09;80.41
78490;DHT22;67776;52.012;4.736;2023-02-15T18:16:29;7.20;80.02
78490;DHT22;67776;52.012;4.736;2023-02-15T18:18:55;7.16;80.18
78490;DHT22;67776;52.012;4.736;2023-02-15T18:21:23;7.15;80.30
78490;DHT22;67776;52.012;4.736;2023-02-15T18:23:48;7.14;80.20
78490;DHT22;67776;52.012;4.736;2023-02-15T18:26:22;7.01;80.69
78490;DHT22;67776;52.012;4.736;2023-02-15T18:28:48;7.02;80.83
78490;DHT22;67776;52.012;4.736;2023-02-15T18:31:14;7.04;80.55
78490;DHT22;67776;52.012;4.736;2023-02-15T18:33:43;7.00;80.51
78490;DHT22;67776;52.012;4.736;2023-02-15T18:36:30;6.94;80.63
78490;DHT22;67776;52.012;4.736;2023-02-15T18:38:57;6.92;80.77
78490;DHT22;67776;52.012;4.736;2023-02-15T18:41:23;6.92;80.67
78490;DHT22;67776;52.012;4.736;2023-02-15T18:43:49;6.94;80.56
78490;DHT22;67776;52.012;4.736;2023-02-15T18:46:16;7.02;80.47
78490;DHT22;67776;52.012;4.736;2023-02-15T18:48:42;7.09;80.00
78490;DHT22;67776;52.012;4.736;2023-02-15T18:51:21;7.15;79.85
78490;DHT22;67776;52.012;4.736;2023-02-15T18:53:49;7.08;79.98
78490;DHT22;67776;52.012;4.736;2023-02-15T18:56:17;7.00;80.14
78490;DHT22;67776;52.012;4.736;2023-02-15T18:58:43;6.90;80.24